Time;durP1;ratioP1;P1;durP2;ratioP2;P2;SDS_P1;SDS_P2;PMS_P1;PMS_P2;Temp;Humidity;BMP_temperature;BMP_pressure;BME280_temperature;BME280_humidity;BME280_pressure;Samples;Min_cycle;Max_cycle;Signal;HPM_P1;HPM_P2
2022/10/30 00:00:47;;;;;;;23.85;16.92;;;12.10;72.30;;;;;;5971471;23;115624;-83
2022/10/30 00:03:15;;;;;;;22.42;17.17;;;12.10;72.50;;;;;;5972041;23;114262;-83
2022/10/30 00:05:42;;;;;;;22.23;16.40;;;12.10;72.50;;;;;;5995424;23;114813;-82
2022/10/30 00:08:10;;;;;;;22.35;16.95;;;12.20;72.40;;;;;;5970475;23;114779;-81
2022/10/30 00:10:38;;;;;;;20.08;15.55;;;12.10;72.40;;;;;;5996052;23;114012;-81
2022/10/30 00:13:05;;;;;;;20.52;16.02;;;12.10;72.40;;;;;;5970010;23;114254;-83
2022/10/30 00:15:32;;;;;;;21.83;16.05;;;12.10;72.50;;;;;;5994845;23;115238;-83
2022/10/30 00:17:59;;;;;;;22.05;16.20;;;12.20;72.50;;;;;;5994851;23;114860;-83
2022/10/30 00:20:26;;;;;;;20.45;15.35;;;12.10;72.40;;;;;;5970977;23;114568;-82
2022/10/30 00:22:53;;;;;;;22.42;16.10;;;12.20;72.40;;;;;;5971188;23;114497;-82
2022/10/30 00:25:21;;;;;;;23.92;16.50;;;12.20;72.40;;;;;;5969875;23;114863;-83
2022/10/30 00:27:48;;;;;;;23.73;16.80;;;12.10;72.40;;;;;;5995114;23;114651;-83
2022/10/30 00:30:15;;;;;;;20.52;16.15;;;12.10;72.50;;;;;;5996033;23;114364;-83
2022/10/30 00:32:42;;;;;;;22.88;15.88;;;12.10;72.50;;;;;;5996004;23;114416;-82
2022/10/30 00:35:10;;;;;;;22.67;17.23;;;12.10;72.60;;;;;;5969268;23;115367;-82
2022/10/30 00:37:38;;;;;;;26.17;16.95;;;12.10;72.60;;;;;;5969478;23;114703;-83
2022/10/30 00:40:06;;;;;;;22.00;16.65;;;12.10;72.60;;;;;;5970946;23;114394;-83
2022/10/30 00:42:33;;;;;;;22.23;17.35;;;12.20;72.50;;;;;;5970754;23;114015;-83
2022/10/30 00:45:03;;;;;;;21.02;16.40;;;12.20;72.40;;;;;;5993460;23;117131;-83
2022/10/30 00:47:38;;;;;;;22.95;17.17;;;12.20;72.40;;;;;;5995260;23;114558;-83
2022/10/30 00:50:15;;;;;;;22.13;17.48;;;12.20;72.40;;;;;;5971328;23;114574;-82
2022/10/30 00:52:53;;;;;;;21.90;17.20;;;12.20;72.40;;;;;;5972761;23;114394;-83
2022/10/30 00:55:26;;;;;;;22.83;16.55;;;12.10;72.40;;;;;;5994597;23;114934;-83
2022/10/30 00:57:53;;;;;;;21.02;15.30;;;12.20;72.40;;;;;;5946550;23;115536;-84
2022/10/30 01:00:21;;;;;;;22.48;16.88;;;12.10;72.30;;;;;;5993046;23;114570;-83
2022/10/30 01:02:48;;;;;;;22.15;16.63;;;12.10;72.40;;;;;;5970674;23;114304;-83
2022/10/30 01:05:17;;;;;;;22.95;17.55;;;12.10;72.50;;;;;;5946716;23;114990;-82
2022/10/30 01:07:45;;;;;;;21.70;16.17;;;12.10;72.60;;;;;;5970113;23;114555;-83
2022/10/30 01:10:13;;;;;;;22.08;16.80;;;12.10;72.40;;;;;;5947054;23;114405;-81
2022/10/30 01:12:41;;;;;;;20.27;15.65;;;12.20;72.40;;;;;;5947552;23;114469;-81
2022/10/30 01:15:09;;;;;;;24.42;17.00;;;12.10;72.40;;;;;;5969200;23;114799;-83
2022/10/30 01:18:20;;;;;;;21.52;17.05;;;12.10;72.30;;;;;;5947675;23;114750;-83
2022/10/30 01:20:55;;;;;;;20.50;15.88;;;12.20;72.10;;;;;;5909271;23;115121;-82
2022/10/30 01:23:32;;;;;;;22.45;16.30;;;12.10;72.40;;;;;;5932302;23;114431;-83
2022/10/30 01:26:36;;;;;;;18.05;14.25;;;12.10;72.40;;;;;;5968905;23;117216;-83
2022/10/30 01:29:22;;;;;;;20.13;14.68;;;12.10;72.10;;;;;;5992982;23;115155;-83
2022/10/30 01:32:23;;;;;;;21.38;15.20;;;12.00;72.40;;;;;;5970224;23;114282;-83
2022/10/30 01:35:09;;;;;;;20.88;15.30;;;12.00;72.20;;;;;;5923727;23;114112;-83
2022/10/30 01:37:50;;;;;;;19.33;15.35;;;11.90;72.50;;;;;;5969189;23;115061;-83
2022/10/30 01:40:17;;;;;;;17.67;14.13;;;11.90;72.60;;;;;;5971583;23;114595;-83
2022/10/30 01:42:54;;;;;;;19.00;14.30;;;11.90;72.60;;;;;;5994899;23;114477;-83
2022/10/30 01:45:48;;;;;;;19.10;14.93;;;11.90;72.60;;;;;;5971365;23;114465;-82
2022/10/30 01:48:37;;;;;;;19.42;13.68;;;11.90;72.60;;;;;;5994939;23;115405;-82
2022/10/30 01:51:34;;;;;;;19.88;13.45;;;11.90;72.60;;;;;;5970060;23;115108;-83
2022/10/30 01:54:06;;;;;;;18.38;13.60;;;11.90;72.60;;;;;;5976954;23;115475;-83
2022/10/30 01:57:01;;;;;;;19.08;13.15;;;11.90;72.70;;;;;;5947397;23;114277;-84
2022/10/30 01:59:33;;;;;;;20.65;13.65;;;11.90;72.60;;;;;;5951312;23;115828;-83
2022/10/30 02:02:00;;;;;;;18.38;12.82;;;11.90;72.70;;;;;;5926414;23;117515;-83
2022/10/30 02:04:27;;;;;;;16.08;13.10;;;11.90;72.70;;;;;;5972128;23;114352;-82
2022/10/30 02:06:54;;;;;;;20.45;12.93;;;11.90;72.60;;;;;;5947770;23;114097;-83
2022/10/30 02:09:22;;;;;;;19.65;13.73;;;11.80;72.60;;;;;;5969697;23;114870;-83
2022/10/30 02:11:50;;;;;;;17.50;13.15;;;11.90;72.70;;;;;;5970332;23;114670;-83
2022/10/30 02:14:28;;;;;;;16.83;12.57;;;11.90;72.60;;;;;;5948028;23;114513;-82
2022/10/30 02:16:56;;;;;;;18.02;12.48;;;11.90;72.50;;;;;;5972103;23;114148;-82
2022/10/30 02:19:23;;;;;;;18.67;13.18;;;11.90;72.50;;;;;;5970774;23;114945;-83
2022/10/30 02:21:50;;;;;;;15.95;12.85;;;11.90;72.60;;;;;;5994682;23;114699;-84
2022/10/30 02:24:18;;;;;;;18.70;13.13;;;11.90;72.40;;;;;;5948479;23;114545;-83
2022/10/30 02:26:45;;;;;;;15.63;12.85;;;11.90;72.30;;;;;;5972097;23;114396;-83
2022/10/30 02:29:12;;;;;;;19.52;12.90;;;11.80;72.30;;;;;;5946533;23;118777;-84
2022/10/30 02:31:40;;;;;;;18.92;14.07;;;11.80;72.40;;;;;;5971267;23;114635;-82
2022/10/30 02:34:07;;;;;;;20.20;14.35;;;11.80;72.30;;;;;;5971924;23;114207;-83
2022/10/30 02:36:34;;;;;;;18.40;12.80;;;11.80;72.30;;;;;;5972881;23;114038;-83
2022/10/30 02:39:02;;;;;;;18.33;12.30;;;11.80;72.30;;;;;;5947256;23;114930;-82
2022/10/30 02:41:29;;;;;;;18.92;13.80;;;11.80;72.30;;;;;;5996119;23;115490;-82
2022/10/30 02:43:56;;;;;;;17.60;13.70;;;11.70;72.30;;;;;;5971672;23;114073;-81
2022/10/30 02:46:23;;;;;;;19.95;15.48;;;11.70;72.40;;;;;;5948281;23;114466;-81
2022/10/30 02:48:50;;;;;;;19.80;14.63;;;11.70;72.50;;;;;;5971143;23;114871;-83
2022/10/30 02:51:17;;;;;;;19.15;14.05;;;11.70;72.60;;;;;;5947570;23;114683;-84
2022/10/30 02:53:44;;;;;;;19.98;14.05;;;11.70;72.60;;;;;;5995623;23;114748;-83
2022/10/30 02:56:12;;;;;;;21.15;15.93;;;11.70;72.60;;;;;;5972028;23;114320;-82
2022/10/30 02:58:40;;;;;;;21.67;15.90;;;11.70;72.80;;;;;;5971107;23;114896;-82
2022/10/30 03:01:12;;;;;;;22.40;17.05;;;11.70;72.50;;;;;;5948696;23;115253;-82
2022/10/30 03:03:40;;;;;;;23.67;17.42;;;11.70;72.30;;;;;;5972233;23;114275;-83
2022/10/30 03:06:08;;;;;;;23.92;18.73;;;11.70;72.20;;;;;;5995623;23;114514;-83
2022/10/30 03:08:35;;;;;;;25.00;18.30;;;11.70;72.10;;;;;;5970015;23;115124;-82
2022/10/30 03:11:12;;;;;;;24.65;17.08;;;11.70;72.20;;;;;;5947642;23;114712;-82
2022/10/30 03:13:39;;;;;;;20.98;17.13;;;11.70;72.30;;;;;;5971526;23;114499;-83
2022/10/30 03:16:11;;;;;;;24.00;18.00;;;11.60;72.30;;;;;;5949247;23;114155;-83
2022/10/30 03:18:38;;;;;;;24.08;17.73;;;11.60;72.20;;;;;;5970496;23;117699;-82
2022/10/30 03:21:10;;;;;;;23.30;16.20;;;11.60;72.30;;;;;;5971356;23;114757;-83
2022/10/30 03:23:37;;;;;;;21.15;15.82;;;11.60;72.30;;;;;;5996480;23;114448;-82
2022/10/30 03:26:05;;;;;;;17.73;13.43;;;11.60;72.30;;;;;;5995897;23;114525;-82
2022/10/30 03:28:36;;;;;;;18.77;14.30;;;11.60;72.30;;;;;;5971723;23;114554;-82
2022/10/30 03:31:05;;;;;;;18.15;13.85;;;11.50;72.40;;;;;;5946891;23;117702;-82
2022/10/30 03:33:32;;;;;;;16.85;12.98;;;11.50;72.40;;;;;;5970750;23;114266;-83
2022/10/30 03:35:59;;;;;;;20.17;12.95;;;11.50;72.50;;;;;;5948412;23;114249;-81
2022/10/30 03:38:26;;;;;;;18.88;13.35;;;11.40;72.40;;;;;;5970558;23;116155;-82
2022/10/30 03:40:53;;;;;;;19.17;14.65;;;11.50;72.40;;;;;;5947145;23;114782;-83
2022/10/30 03:43:20;;;;;;;20.42;14.55;;;11.40;72.50;;;;;;5971897;23;114130;-83
2022/10/30 03:45:49;;;;;;;20.90;14.48;;;11.40;72.30;;;;;;5971734;23;114035;-83
2022/10/30 03:48:17;;;;;;;18.40;14.00;;;11.40;72.40;;;;;;5970603;23;114814;-83
2022/10/30 03:50:44;;;;;;;21.75;15.10;;;11.30;72.30;;;;;;5947634;23;114588;-82
2022/10/30 03:53:12;;;;;;;20.17;14.27;;;11.30;72.30;;;;;;5971476;23;114419;-83
2022/10/30 03:55:39;;;;;;;18.75;15.23;;;11.30;72.30;;;;;;5971084;23;114400;-82
2022/10/30 03:58:06;;;;;;;18.20;15.07;;;11.30;72.30;;;;;;5969997;23;114832;-83
2022/10/30 04:00:33;;;;;;;19.27;14.80;;;11.40;72.50;;;;;;5993885;23;117273;-82
2022/10/30 04:03:05;;;;;;;18.98;14.07;;;11.30;72.50;;;;;;5948075;23;114158;-82
2022/10/30 04:05:32;;;;;;;18.95;13.57;;;11.30;72.50;;;;;;5971769;23;114293;-83
2022/10/30 04:08:03;;;;;;;21.15;14.85;;;11.40;72.60;;;;;;5978024;23;114583;-82
2022/10/30 04:10:34;;;;;;;27.52;21.02;;;11.40;72.50;;;;;;5926469;23;116718;-82
2022/10/30 04:13:06;;;;;;;20.55;14.85;;;11.40;72.60;;;;;;5925660;23;114248;-82
2022/10/30 04:15:35;;;;;;;19.40;14.80;;;11.40;72.70;;;;;;5948571;23;114285;-83
2022/10/30 04:18:04;;;;;;;19.23;14.50;;;11.30;72.90;;;;;;5946909;23;114905;-81
2022/10/30 04:20:31;;;;;;;19.45;14.40;;;11.40;72.90;;;;;;5946675;23;115787;-83
2022/10/30 04:23:02;;;;;;;21.00;14.20;;;11.40;72.90;;;;;;5970799;23;114103;-82
2022/10/30 04:25:30;;;;;;;19.17;13.80;;;11.40;72.80;;;;;;5996901;23;114046;-83
2022/10/30 04:27:59;;;;;;;19.90;14.07;;;11.40;72.80;;;;;;5946988;23;118373;-83
2022/10/30 04:30:30;;;;;;;20.30;14.80;;;11.40;72.70;;;;;;5970326;23;115984;-82
2022/10/30 04:32:57;;;;;;;21.08;15.35;;;11.40;72.50;;;;;;5948256;23;114236;-83
2022/10/30 04:35:28;;;;;;;21.15;14.27;;;11.40;72.50;;;;;;5995220;23;114516;-82
2022/10/30 04:37:56;;;;;;;22.50;15.25;;;11.40;72.50;;;;;;5970259;23;114803;-81
2022/10/30 04:40:26;;;;;;;20.02;14.38;;;11.40;72.60;;;;;;5970282;23;114747;-81
2022/10/30 04:42:58;;;;;;;19.38;13.90;;;11.40;72.40;;;;;;5971199;23;114381;-83
2022/10/30 04:45:26;;;;;;;19.92;14.55;;;11.40;72.40;;;;;;5948110;23;114313;-81
2022/10/30 04:48:00;;;;;;;19.83;14.93;;;11.30;72.40;;;;;;5969154;23;114933;-82
2022/10/30 04:50:30;;;;;;;19.98;15.07;;;11.30;72.40;;;;;;5946075;23;118051;-80
2022/10/30 04:52:59;;;;;;;18.08;13.95;;;11.30;72.50;;;;;;5947631;23;114402;-82
2022/10/30 04:55:27;;;;;;;17.05;13.40;;;11.30;72.40;;;;;;5947105;23;114427;-81
2022/10/30 04:57:57;;;;;;;20.58;14.50;;;11.20;72.70;;;;;;5995096;23;114901;-84
2022/10/30 05:00:25;;;;;;;16.70;13.60;;;11.30;72.90;;;;;;5946729;23;114714;-83
2022/10/30 05:03:00;;;;;;;22.13;15.25;;;11.20;72.70;;;;;;5972577;23;114215;-82
2022/10/30 05:05:29;;;;;;;21.75;14.43;;;11.20;72.90;;;;;;5995263;23;114258;-83
2022/10/30 05:07:56;;;;;;;19.17;13.93;;;11.20;72.80;;;;;;5946805;23;114885;-83
2022/10/30 05:10:24;;;;;;;22.15;14.95;;;11.20;73.00;;;;;;5945996;23;114616;-83
2022/10/30 05:12:54;;;;;;;18.85;13.52;;;11.20;73.00;;;;;;5993497;23;114549;-83
2022/10/30 05:15:22;;;;;;;18.05;13.35;;;11.20;72.90;;;;;;5946890;23;114542;-82
2022/10/30 05:17:52;;;;;;;21.13;14.05;;;11.20;72.80;;;;;;5969360;23;115153;-83
2022/10/30 05:20:20;;;;;;;20.73;14.32;;;11.20;72.80;;;;;;5992562;23;115267;-83
2022/10/30 05:22:54;;;;;;;21.65;14.57;;;11.20;72.80;;;;;;5970731;23;114318;-83
2022/10/30 05:25:21;;;;;;;;;;;11.30;72.80;;;;;;5947151;23;114505;-83
2022/10/30 05:27:48;;;;;;;19.83;13.15;;;11.20;72.60;;;;;;5994901;23;114755;-82
2022/10/30 05:30:17;;;;;;;19.08;14.23;;;11.10;73.30;;;;;;5946526;23;115333;-82
2022/10/30 05:32:45;;;;;;;20.00;14.30;;;11.10;73.10;;;;;;5970982;23;114458;-83
2022/10/30 05:35:12;;;;;;;22.70;15.20;;;11.20;73.20;;;;;;5970409;23;114169;-82
2022/10/30 05:37:39;;;;;;;22.35;15.38;;;11.20;73.20;;;;;;5968645;23;115155;-82
2022/10/30 05:40:07;;;;;;;20.00;14.85;;;11.20;73.20;;;;;;5969268;23;114604;-82
2022/10/30 05:42:34;;;;;;;20.48;15.20;;;11.20;73.10;;;;;;5994165;23;114509;-82
2022/10/30 05:45:03;;;;;;;24.30;15.88;;;11.20;73.30;;;;;;5970375;23;114510;-81
2022/10/30 05:47:34;;;;;;;21.17;14.63;;;11.20;73.20;;;;;;5992595;23;114801;-82
2022/10/30 05:50:02;;;;;;;22.35;16.70;;;11.20;73.20;;;;;;5945969;23;115076;-82
2022/10/30 05:52:29;;;;;;;25.85;17.77;;;11.20;73.20;;;;;;5946873;23;114305;-82
2022/10/30 05:54:58;;;;;;;28.80;18.13;;;11.30;73.30;;;;;;5996227;23;114195;-83
2022/10/30 05:57:40;;;;;;;22.90;16.35;;;11.30;73.30;;;;;;5949332;23;114962;-81
2022/10/30 06:00:08;;;;;;;24.77;16.42;;;11.30;73.20;;;;;;5969838;23;114649;-83
2022/10/30 06:02:41;;;;;;;26.27;17.13;;;11.30;73.30;;;;;;5995849;23;114174;-83
2022/10/30 06:05:08;;;;;;;23.40;16.33;;;11.30;73.30;;;;;;5970737;23;114302;-83
2022/10/30 06:07:35;;;;;;;25.15;15.75;;;11.40;73.30;;;;;;5994655;23;114819;-82
2022/10/30 06:10:03;;;;;;;24.92;16.48;;;11.50;73.20;;;;;;5945814;23;115850;-83
2022/10/30 06:12:43;;;;;;;25.98;16.48;;;11.50;73.10;;;;;;5994674;23;114465;-83
2022/10/30 06:15:29;;;;;;;31.15;18.25;;;11.60;73.00;;;;;;5971998;23;114587;-83
2022/10/30 06:17:56;;;;;;;26.83;17.58;;;11.70;72.90;;;;;;5970257;23;114787;-82
2022/10/30 06:20:54;;;;;;;23.33;17.20;;;11.70;73.70;;;;;;5982479;23;115455;-83
2022/10/30 06:23:33;;;;;;;28.35;19.98;;;11.80;73.50;;;;;;5994751;23;114542;-82
2022/10/30 06:26:05;;;;;;;33.83;19.88;;;11.90;73.50;;;;;;5970482;23;114345;-82
2022/10/30 06:28:42;;;;;;;26.90;18.75;;;12.10;73.30;;;;;;5968533;23;117036;-82
2022/10/30 06:31:11;;;;;;;28.55;19.42;;;12.20;72.70;;;;;;5945015;23;117195;-83
2022/10/30 06:33:38;;;;;;;32.30;19.10;;;12.30;72.30;;;;;;5970311;23;114385;-82
2022/10/30 06:36:06;;;;;;;28.90;18.17;;;12.40;72.10;;;;;;5970535;23;114387;-82
2022/10/30 06:38:33;;;;;;;24.35;17.45;;;12.50;71.70;;;;;;5969144;23;115042;-82
2022/10/30 06:41:00;;;;;;;30.20;18.60;;;12.60;71.40;;;;;;5945602;23;114770;-83
2022/10/30 06:44:05;;;;;;;24.95;16.65;;;12.70;71.10;;;;;;5936058;23;114343;-82
2022/10/30 06:46:35;;;;;;;24.27;15.77;;;12.70;71.10;;;;;;5890980;23;114190;-83
2022/10/30 06:49:02;;;;;;;22.00;14.88;;;12.80;71.00;;;;;;5929766;23;117599;-83
2022/10/30 06:51:30;;;;;;;25.17;15.00;;;12.90;70.80;;;;;;5944214;23;118318;-83
2022/10/30 06:53:58;;;;;;;21.10;15.18;;;13.00;70.60;;;;;;5968461;23;114289;-83
2022/10/30 06:56:38;;;;;;;20.63;14.57;;;13.10;70.20;;;;;;5950913;23;114364;-83
2022/10/30 06:59:05;;;;;;;20.42;14.40;;;13.20;70.10;;;;;;5993940;23;114817;-82
2022/10/30 07:01:44;;;;;;;21.20;14.18;;;13.20;70.00;;;;;;5966395;23;114793;-83
2022/10/30 07:04:16;;;;;;;17.95;12.48;;;13.40;69.60;;;;;;5971502;23;114483;-82
2022/10/30 07:06:43;;;;;;;19.25;12.30;;;13.50;69.20;;;;;;5970953;23;114499;-83
2022/10/30 07:09:10;;;;;;;20.60;13.05;;;13.60;69.10;;;;;;5946605;23;115434;-82
2022/10/30 07:11:41;;;;;;;17.13;12.18;;;13.70;68.70;;;;;;5970330;23;114757;-83
2022/10/30 07:14:17;;;;;;;16.52;10.90;;;13.70;68.50;;;;;;5995941;23;114309;-83
2022/10/30 07:16:56;;;;;;;14.40;10.63;;;13.90;68.30;;;;;;5925698;23;114332;-82
2022/10/30 07:19:23;;;;;;;15.38;11.15;;;14.00;67.80;;;;;;5969469;23;114756;-81
2022/10/30 07:21:51;;;;;;;15.55;10.70;;;14.10;67.70;;;;;;5993435;23;115018;-82
2022/10/30 07:24:18;;;;;;;17.38;10.98;;;14.20;67.30;;;;;;5971037;23;114242;-81
2022/10/30 07:27:04;;;;;;;15.88;11.02;;;14.20;67.00;;;;;;5994222;23;114600;-81
2022/10/30 07:29:43;;;;;;;14.82;10.00;;;14.30;66.80;;;;;;5969416;23;114726;-82
2022/10/30 07:32:33;;;;;;;17.90;12.32;;;14.50;66.60;;;;;;5986808;23;114453;-82
2022/10/30 07:35:11;;;;;;;17.67;13.68;;;14.60;66.30;;;;;;5971054;23;114260;-82
2022/10/30 07:38:07;;;;;;;18.50;13.35;;;14.70;65.90;;;;;;5990771;23;114404;-82
2022/10/30 07:40:41;;;;;;;17.35;12.38;;;14.80;65.60;;;;;;5969945;23;114916;-82
2022/10/30 07:43:19;;;;;;;16.02;11.52;;;14.80;65.60;;;;;;5973341;23;114562;-83
2022/10/30 07:46:05;;;;;;;16.73;11.07;;;14.90;65.30;;;;;;5975141;23;114504;-83
2022/10/30 07:48:56;;;;;;;16.33;11.02;;;15.00;65.00;;;;;;5996876;23;114510;-83
2022/10/30 07:51:29;;;;;;;23.00;16.63;;;15.10;64.90;;;;;;5970930;23;114874;-83
2022/10/30 07:53:56;;;;;;;24.48;15.77;;;15.20;64.60;;;;;;5995696;23;114467;-84
2022/10/30 07:56:24;;;;;;;18.20;13.60;;;15.30;64.40;;;;;;5948289;23;114302;-82
2022/10/30 07:58:51;;;;;;;17.05;10.05;;;15.30;64.20;;;;;;5995987;23;114142;-82
2022/10/30 08:01:55;;;;;;;18.08;9.60;;;15.40;63.90;;;;;;5970695;23;115162;-83
2022/10/30 08:04:32;;;;;;;12.63;8.35;;;15.50;64.00;;;;;;5973355;23;114517;-83
2022/10/30 08:07:08;;;;;;;13.10;8.27;;;15.60;63.70;;;;;;5971822;23;114367;-83
2022/10/30 08:09:35;;;;;;;13.50;9.38;;;15.70;63.60;;;;;;5948151;23;114269;-84
2022/10/30 08:12:04;;;;;;;11.07;7.93;;;15.70;63.30;;;;;;5969652;23;114356;-82
2022/10/30 08:14:31;;;;;;;11.07;7.53;;;15.80;63.20;;;;;;5969844;23;114853;-82
2022/10/30 08:16:58;;;;;;;14.05;7.47;;;15.90;62.90;;;;;;5997321;23;114278;-81
2022/10/30 08:19:25;;;;;;;12.05;7.05;;;15.90;62.80;;;;;;5971549;23;114201;-82
2022/10/30 08:21:55;;;;;;;9.40;6.57;;;15.90;62.60;;;;;;5946814;23;115080;-82
2022/10/30 08:24:26;;;;;;;9.98;6.22;;;16.00;62.50;;;;;;5993141;23;114917;-82
2022/10/30 08:26:55;;;;;;;10.43;5.85;;;15.90;62.40;;;;;;5972199;23;114226;-82
2022/10/30 08:29:25;;;;;;;11.68;5.80;;;16.00;62.40;;;;;;5936613;23;114042;-82
2022/10/30 08:31:53;;;;;;;11.50;5.47;;;16.00;62.50;;;;;;5952103;23;114822;-82
2022/10/30 08:34:23;;;;;;;10.48;5.78;;;16.00;62.40;;;;;;5970571;23;118389;-82
2022/10/30 08:36:52;;;;;;;10.32;6.80;;;16.10;62.30;;;;;;5971223;23;114193;-81
2022/10/30 08:39:20;;;;;;;12.00;7.13;;;16.20;62.20;;;;;;5997036;23;114134;-82
2022/10/30 08:42:07;;;;;;;8.45;6.07;;;16.20;62.20;;;;;;5945322;23;114916;-82
2022/10/30 08:44:41;;;;;;;8.30;6.20;;;16.20;62.10;;;;;;5971705;23;114868;-82
2022/10/30 08:47:29;;;;;;;12.23;6.20;;;16.30;62.10;;;;;;5962343;23;114345;-82
2022/10/30 08:49:56;;;;;;;12.40;6.72;;;16.30;62.10;;;;;;5996807;23;115259;-82
2022/10/30 08:52:27;;;;;;;12.65;7.43;;;16.50;62.10;;;;;;5971209;23;115523;-82
2022/10/30 08:54:55;;;;;;;11.07;7.65;;;16.60;61.80;;;;;;5970501;23;114557;-82
2022/10/30 08:57:25;;;;;;;10.85;7.65;;;16.70;61.50;;;;;;5995402;23;114541;-81
2022/10/30 08:59:54;;;;;;;11.73;7.07;;;16.70;61.70;;;;;;5972204;23;114144;-83
2022/10/30 09:02:54;;;;;;;13.70;7.25;;;16.80;61.50;;;;;;5969063;23;117539;-83
2022/10/30 09:05:44;;;;;;;10.13;7.03;;;16.80;61.50;;;;;;5989091;23;117005;-82
2022/10/30 09:08:13;;;;;;;11.55;7.13;;;16.90;61.40;;;;;;5972111;23;114298;-81
2022/10/30 09:11:04;;;;;;;10.88;6.47;;;16.90;61.30;;;;;;5996002;23;114487;-81
2022/10/30 09:13:31;;;;;;;10.73;7.50;;;16.90;61.30;;;;;;5970515;23;115090;-81
2022/10/30 09:16:00;;;;;;;14.05;6.88;;;16.90;61.20;;;;;;5970553;23;114452;-81
2022/10/30 09:18:29;;;;;;;12.45;7.00;;;17.00;61.10;;;;;;5995778;23;114583;-82
2022/10/30 09:20:56;;;;;;;13.77;7.00;;;16.90;61.10;;;;;;5970558;23;115013;-82
2022/10/30 09:23:24;;;;;;;10.18;6.53;;;17.00;61.10;;;;;;5946506;23;114953;-81
2022/10/30 09:25:59;;;;;;;14.18;6.45;;;17.00;61.00;;;;;;5994111;23;117097;-81
2022/10/30 09:28:41;;;;;;;16.02;8.45;;;17.00;61.10;;;;;;5969988;23;114120;-81
2022/10/30 09:31:43;;;;;;;13.57;8.32;;;17.10;61.20;;;;;;5996118;23;114377;-81
2022/10/30 09:34:15;;;;;;;13.10;7.82;;;17.10;61.50;;;;;;5970351;23;115036;-82
2022/10/30 09:36:53;;;;;;;17.05;11.07;;;17.20;61.40;;;;;;5970239;23;115138;-81
2022/10/30 09:39:24;;;;;;;22.52;12.93;;;17.30;61.30;;;;;;5948645;23;114276;-81
2022/10/30 09:42:12;;;;;;;14.90;8.70;;;17.30;61.20;;;;;;5995263;23;114213;-82
2022/10/30 09:45:08;;;;;;;12.65;7.20;;;17.40;60.70;;;;;;5970293;23;114426;-81
2022/10/30 09:48:32;;;;;;;16.02;7.82;;;17.50;60.70;;;;;;5995969;23;114595;-81
2022/10/30 09:51:54;;;;;;;10.73;5.45;;;17.50;60.10;;;;;;5971687;23;114272;-81
2022/10/30 09:54:55;;;;;;;10.52;5.60;;;17.60;59.90;;;;;;5949882;23;114416;-81
2022/10/30 09:57:24;;;;;;;10.38;5.68;;;17.60;59.80;;;;;;5969909;23;114550;-81
2022/10/30 10:00:17;;;;;;;13.60;6.03;;;17.70;59.70;;;;;;5972533;23;114939;-81
2022/10/30 10:03:03;;;;;;;10.55;5.72;;;17.80;59.60;;;;;;5949366;23;114255;-81
2022/10/30 10:05:58;;;;;;;13.07;6.45;;;17.80;59.50;;;;;;5971329;23;114214;-82
2022/10/30 10:08:38;;;;;;;11.77;6.63;;;17.90;59.40;;;;;;5952200;23;115369;-81
2022/10/30 10:11:26;;;;;;;14.40;7.68;;;17.90;59.20;;;;;;5974273;23;114597;-81
2022/10/30 10:14:01;;;;;;;12.25;7.35;;;18.00;58.90;;;;;;5971303;23;114274;-81
2022/10/30 10:16:29;;;;;;;15.38;7.50;;;18.10;58.80;;;;;;5949777;23;114075;-82
2022/10/30 10:19:18;;;;;;;16.17;7.35;;;18.10;58.90;;;;;;5947951;23;114894;-82
2022/10/30 10:21:56;;;;;;;11.82;7.80;;;18.20;59.00;;;;;;5974195;23;114709;-81
2022/10/30 10:24:28;;;;;;;12.02;7.32;;;18.20;59.00;;;;;;5996016;23;114390;-82
2022/10/30 10:27:26;;;;;;;14.40;7.53;;;18.20;59.00;;;;;;5948486;23;114321;-82
2022/10/30 10:30:04;;;;;;;13.55;7.47;;;18.30;58.90;;;;;;5973510;23;115979;-82
2022/10/30 10:32:53;;;;;;;12.02;7.68;;;18.20;59.00;;;;;;5969615;23;114700;-82
2022/10/30 10:35:39;;;;;;;13.02;7.50;;;18.30;58.80;;;;;;5973490;23;114378;-82
2022/10/30 10:38:31;;;;;;;14.43;7.35;;;18.30;58.50;;;;;;6006348;23;114398;-82
2022/10/30 10:41:30;;;;;;;13.18;7.97;;;18.30;58.60;;;;;;5973291;23;114407;-80
2022/10/30 10:44:29;;;;;;;15.60;9.13;;;18.30;59.10;;;;;;5975048;23;114818;-80
2022/10/30 10:47:16;;;;;;;18.42;9.18;;;18.30;58.90;;;;;;5895981;23;115979;-80
2022/10/30 10:49:53;;;;;;;14.82;8.77;;;18.30;59.00;;;;;;5972820;23;114393;-80
2022/10/30 10:52:33;;;;;;;16.55;8.88;;;18.30;58.90;;;;;;5995767;23;114977;-80
2022/10/30 10:55:15;;;;;;;15.63;8.68;;;18.30;59.00;;;;;;5971111;23;114640;-80
2022/10/30 10:57:42;;;;;;;14.15;8.15;;;18.40;59.00;;;;;;5974415;23;114313;-80
2022/10/30 11:00:17;;;;;;;16.83;8.88;;;18.40;59.10;;;;;;5948350;23;114354;-80
2022/10/30 11:03:04;;;;;;;12.88;8.10;;;18.30;58.80;;;;;;5995475;23;115560;-81
2022/10/30 11:06:03;;;;;;;14.98;7.68;;;18.40;59.00;;;;;;5995752;23;115040;-81
2022/10/30 11:08:31;;;;;;;16.35;8.35;;;18.40;59.00;;;;;;5951811;23;114435;-80
2022/10/30 11:11:00;;;;;;;12.38;8.40;;;18.30;59.20;;;;;;5973121;23;114374;-80
2022/10/30 11:13:35;;;;;;;12.15;7.38;;;18.30;59.00;;;;;;5971136;23;114883;-83
2022/10/30 11:16:21;;;;;;;12.52;7.70;;;18.40;59.10;;;;;;5948940;23;114834;-81
2022/10/30 11:18:51;;;;;;;13.88;7.63;;;18.50;59.10;;;;;;5971306;23;114458;-81
2022/10/30 11:21:20;;;;;;;15.40;8.43;;;18.40;59.20;;;;;;5972071;23;114190;-80
2022/10/30 11:23:48;;;;;;;13.52;8.00;;;18.50;59.30;;;;;;5996236;23;115696;-81
2022/10/30 11:26:18;;;;;;;11.73;8.30;;;18.50;59.20;;;;;;5996321;23;115144;-81
2022/10/30 11:28:49;;;;;;;13.82;8.35;;;18.60;59.20;;;;;;5997559;23;114397;-80
2022/10/30 11:31:26;;;;;;;13.43;8.52;;;18.60;59.20;;;;;;5972301;23;114791;-81
2022/10/30 11:33:54;;;;;;;14.45;10.05;;;18.70;59.20;;;;;;5972239;23;115432;-80
2022/10/30 11:36:22;;;;;;;14.80;9.18;;;18.70;59.30;;;;;;5971754;23;114595;-81
2022/10/30 11:38:50;;;;;;;12.55;8.90;;;18.70;59.30;;;;;;5972674;23;114056;-81
2022/10/30 11:41:17;;;;;;;15.10;8.60;;;18.70;59.20;;;;;;5997165;23;114242;-79
2022/10/30 11:43:44;;;;;;;12.65;9.20;;;18.80;59.20;;;;;;5969807;23;115012;-79
2022/10/30 11:46:18;;;;;;;17.38;9.93;;;18.80;59.30;;;;;;5947312;23;114684;-80
2022/10/30 11:48:45;;;;;;;17.73;10.57;;;18.80;59.10;;;;;;5948719;23;114233;-80
2022/10/30 11:51:13;;;;;;;17.33;8.60;;;18.90;59.10;;;;;;5948380;23;114245;-79
2022/10/30 11:53:47;;;;;;;13.43;8.38;;;18.90;59.10;;;;;;5969944;23;114924;-80
2022/10/30 11:56:21;;;;;;;16.58;8.75;;;19.00;58.80;;;;;;5946678;23;117510;-79
2022/10/30 11:58:52;;;;;;;15.98;9.40;;;19.00;58.90;;;;;;5948262;23;114474;-80
2022/10/30 12:01:23;;;;;;;11.05;8.38;;;19.10;58.80;;;;;;5948442;23;114155;-80
2022/10/30 12:03:50;;;;;;;12.00;8.15;;;19.00;58.70;;;;;;5995668;23;115810;-80
2022/10/30 12:06:24;;;;;;;13.27;7.93;;;19.10;58.80;;;;;;5947258;23;114714;-80
2022/10/30 12:09:00;;;;;;;12.07;7.88;;;19.10;58.60;;;;;;5996567;23;114402;-80
2022/10/30 12:11:31;;;;;;;12.68;7.28;;;19.20;58.30;;;;;;5971631;23;114402;-80
2022/10/30 12:13:58;;;;;;;11.18;7.25;;;19.20;57.90;;;;;;5971226;23;114887;-80
2022/10/30 12:16:25;;;;;;;12.75;6.90;;;19.20;57.70;;;;;;5947501;23;114616;-80
2022/10/30 12:18:56;;;;;;;12.45;7.72;;;19.20;57.70;;;;;;5924688;23;114586;-80
2022/10/30 12:21:25;;;;;;;10.80;6.97;;;19.20;57.70;;;;;;5972778;23;114191;-80
2022/10/30 12:23:58;;;;;;;12.52;7.38;;;19.20;57.60;;;;;;5947701;23;114821;-80
2022/10/30 12:26:25;;;;;;;11.98;7.03;;;19.20;57.60;;;;;;5971871;23;114617;-80
2022/10/30 12:28:56;;;;;;;13.43;7.53;;;19.20;57.70;;;;;;5996914;23;114208;-80
2022/10/30 12:31:33;;;;;;;13.10;6.97;;;19.20;57.50;;;;;;5972495;23;114325;-80
2022/10/30 12:34:38;;;;;;;14.73;7.70;;;19.20;57.40;;;;;;5948479;23;114890;-80
2022/10/30 12:37:17;;;;;;;13.18;7.55;;;19.30;57.40;;;;;;5970322;23;114708;-80
2022/10/30 12:39:59;;;;;;;12.32;8.07;;;19.20;57.50;;;;;;5949700;23;114404;-80
2022/10/30 12:42:26;;;;;;;15.95;8.88;;;19.30;57.50;;;;;;5996983;23;114319;-79
2022/10/30 12:45:13;;;;;;;13.32;7.78;;;19.30;57.60;;;;;;5951127;23;115014;-81
2022/10/30 12:47:44;;;;;;;14.15;7.57;;;19.30;57.50;;;;;;5950110;23;115142;-81
2022/10/30 12:50:26;;;;;;;11.25;7.18;;;19.30;57.40;;;;;;5973168;23;114398;-80
2022/10/30 12:53:00;;;;;;;11.63;7.57;;;19.30;57.20;;;;;;5927758;23;114204;-80